createdAt,value
2023-01-08T00:01:40.112Z,90.80
2023-01-08T00:04:07.998Z,90.40
2023-01-08T00:06:36.041Z,90.40
2023-01-08T00:09:05.429Z,90.10
2023-01-08T00:11:33.214Z,90.10
2023-01-08T00:14:01.355Z,90.10
2023-01-08T00:16:29.752Z,90.00
2023-01-08T00:18:57.992Z,90.10
2023-01-08T00:21:25.805Z,90.10
2023-01-08T00:23:53.910Z,90.10
2023-01-08T00:26:25.080Z,90.10
2023-01-08T00:28:53.413Z,90.10
2023-01-08T00:31:22.779Z,90.20
2023-01-08T00:33:51.016Z,90.10
2023-01-08T00:36:21.480Z,90.20
2023-01-08T00:38:49.523Z,90.40
2023-01-08T00:41:18.111Z,90.50
2023-01-08T00:43:47.832Z,90.50
2023-01-08T00:46:15.751Z,90.60
2023-01-08T00:48:43.640Z,90.60
2023-01-08T00:51:11.471Z,90.70
2023-01-08T00:53:39.590Z,90.80
2023-01-08T00:56:10.255Z,90.60
2023-01-08T00:58:38.935Z,91.00
2023-01-08T01:01:12.753Z,91.00
2023-01-08T01:03:41.131Z,91.10
2023-01-08T01:06:10.046Z,91.10
2023-01-08T01:08:37.948Z,91.20
2023-01-08T01:11:08.536Z,91.30
2023-01-08T01:13:36.394Z,91.40
2023-01-08T01:16:04.953Z,91.40
2023-01-08T01:18:34.143Z,91.30
2023-01-08T01:21:01.982Z,91.30
2023-01-08T01:23:29.828Z,91.20
2023-01-08T01:25:57.661Z,91.20
2023-01-08T01:28:25.506Z,91.00
2023-01-08T01:30:57.068Z,91.00
2023-01-08T01:33:25.147Z,91.00
2023-01-08T01:36:02.503Z,90.90
2023-01-08T01:38:30.661Z,91.00
2023-01-08T01:40:58.521Z,90.90
2023-01-08T01:43:41.356Z,90.90
2023-01-08T01:46:22.319Z,91.10
2023-01-08T01:48:53.859Z,91.00
2023-01-08T01:51:30.366Z,90.70
2023-01-08T01:53:58.485Z,91.00
2023-01-08T01:56:27.005Z,91.00
2023-01-08T01:58:55.161Z,90.90
2023-01-08T02:01:27.280Z,90.80
2023-01-08T02:03:55.212Z,91.00
2023-01-08T02:06:36.386Z,90.90
2023-01-08T02:09:08.728Z,90.90
2023-01-08T02:11:45.677Z,91.00
2023-01-08T02:14:21.512Z,91.00
2023-01-08T02:16:55.639Z,91.10
2023-01-08T02:19:40.307Z,91.00
2023-01-08T02:22:23.749Z,91.30
2023-01-08T02:24:57.489Z,91.20
2023-01-08T02:27:30.437Z,91.20
2023-01-08T02:29:59.047Z,91.30
2023-01-08T02:32:28.325Z,91.30
2023-01-08T02:34:56.754Z,91.40
2023-01-08T02:37:25.057Z,91.40
2023-01-08T02:40:17.702Z,91.50
2023-01-08T02:42:52.497Z,91.60
2023-01-08T02:45:32.177Z,91.50
2023-01-08T02:48:08.318Z,91.60
2023-01-08T02:50:40.228Z,91.70
2023-01-08T02:53:12.962Z,91.70
2023-01-08T02:55:43.980Z,91.80
2023-01-08T02:58:14.063Z,91.80
2023-01-08T03:00:43.543Z,91.90
2023-01-08T03:03:15.760Z,91.90
2023-01-08T03:05:47.893Z,92.00
2023-01-08T03:08:16.029Z,92.10
2023-01-08T03:10:49.679Z,91.90
2023-01-08T03:13:25.301Z,92.30
2023-01-08T03:15:57.320Z,92.10
2023-01-08T03:18:30.498Z,92.20
2023-01-08T03:20:58.882Z,92.20
2023-01-08T03:23:29.211Z,92.30
2023-01-08T03:25:59.089Z,92.30
2023-01-08T03:28:34.354Z,92.30
2023-01-08T03:31:03.740Z,92.30
2023-01-08T03:33:32.973Z,92.30
2023-01-08T03:36:03.234Z,92.30
2023-01-08T03:38:35.072Z,92.30
2023-01-08T03:41:08.425Z,92.30
2023-01-08T03:43:37.828Z,92.30
2023-01-08T03:46:09.892Z,92.30
2023-01-08T03:48:39.046Z,92.30
2023-01-08T03:51:09.401Z,92.30
2023-01-08T03:53:37.247Z,92.30
2023-01-08T03:56:05.372Z,92.30
2023-01-08T03:58:33.181Z,92.30
2023-01-08T04:01:02.424Z,92.30
2023-01-08T04:03:30.241Z,92.20
2023-01-08T04:06:00.687Z,92.20
2023-01-08T04:08:28.552Z,92.20
2023-01-08T04:10:56.392Z,92.10
2023-01-08T04:13:24.245Z,92.10
2023-01-08T04:15:52.885Z,92.00
2023-01-08T04:18:23.259Z,91.90
2023-01-08T04:20:54.437Z,91.90
2023-01-08T04:23:23.883Z,91.80
2023-01-08T04:25:52.871Z,91.70
2023-01-08T04:28:24.848Z,91.70
2023-01-08T04:30:53.188Z,91.60
2023-01-08T04:33:25.319Z,91.50
2023-01-08T04:35:53.168Z,91.60
2023-01-08T04:38:23.097Z,91.50
2023-01-08T04:40:56.869Z,91.50
2023-01-08T04:43:24.687Z,91.20
2023-01-08T04:45:53.650Z,91.50
2023-01-08T04:48:23.563Z,91.50
2023-01-08T04:50:52.284Z,91.50
2023-01-08T04:53:21.059Z,91.40
2023-01-08T04:55:49.364Z,91.40
2023-01-08T04:58:17.170Z,91.40
2023-01-08T05:00:44.968Z,91.40
2023-01-08T05:03:12.861Z,91.40
2023-01-08T05:05:42.120Z,91.40
2023-01-08T05:08:10.195Z,91.40
2023-01-08T05:10:38.040Z,91.40
2023-01-08T05:13:06.073Z,91.40
2023-01-08T05:15:34.235Z,91.40
2023-01-08T05:18:03.672Z,91.50
2023-01-08T05:20:33.088Z,91.50
2023-01-08T05:23:02.697Z,91.50
2023-01-08T05:25:30.581Z,91.50
2023-01-08T05:27:58.408Z,91.30
2023-01-08T05:30:26.293Z,91.40
2023-01-08T05:32:54.381Z,91.40
2023-01-08T05:35:23.141Z,91.50
2023-01-08T05:37:51.670Z,90.60
2023-01-08T05:40:21.341Z,91.40
2023-01-08T05:42:49.546Z,91.40
2023-01-08T05:45:17.620Z,91.40
2023-01-08T05:47:45.408Z,91.40
2023-01-08T05:50:13.255Z,91.40
2023-01-08T05:52:41.112Z,91.40
2023-01-08T05:55:09.689Z,91.40
2023-01-08T05:57:39.003Z,91.40
2023-01-08T06:00:11.122Z,91.40
2023-01-08T06:02:39.253Z,91.50
2023-01-08T06:05:07.564Z,91.40
2023-01-08T06:07:35.503Z,91.40
2023-01-08T06:10:03.515Z,91.40
2023-01-08T06:12:31.300Z,91.40
2023-01-08T06:15:00.541Z,91.40
2023-01-08T06:17:28.426Z,91.40
2023-01-08T06:19:56.260Z,91.30
2023-01-08T06:22:24.453Z,91.40
2023-01-08T06:24:52.658Z,91.40
2023-01-08T06:27:21.136Z,91.30
2023-01-08T06:29:52.625Z,91.20
2023-01-08T06:32:22.155Z,91.30
2023-01-08T06:34:50.523Z,91.30
2023-01-08T06:37:18.639Z,91.40
2023-01-08T06:39:46.864Z,91.40
2023-01-08T06:42:14.694Z,91.40
2023-01-08T06:44:42.501Z,91.40
2023-01-08T06:47:10.378Z,91.30
2023-01-08T06:49:39.572Z,91.20
2023-01-08T06:52:07.465Z,91.30
2023-01-08T06:54:35.265Z,91.30
2023-01-08T06:57:03.461Z,91.30
2023-01-08T06:59:31.278Z,91.20
2023-01-08T07:01:59.249Z,91.30
2023-01-08T07:04:27.504Z,91.30
2023-01-08T07:06:56.804Z,91.60
2023-01-08T07:09:24.616Z,91.20
2023-01-08T07:11:52.729Z,91.20
2023-01-08T07:14:21.175Z,91.20
2023-01-08T07:16:49.573Z,91.20
2023-01-08T07:19:17.479Z,91.60
2023-01-08T07:21:45.535Z,91.10
2023-01-08T07:24:14.758Z,91.20
2023-01-08T07:26:42.628Z,91.90
2023-01-08T07:29:10.518Z,91.20
2023-01-08T07:31:38.460Z,91.20
2023-01-08T07:34:06.428Z,91.20
2023-01-08T07:36:34.350Z,91.20
2023-01-08T07:39:02.876Z,91.20
2023-01-08T07:41:32.116Z,91.10
2023-01-08T07:43:59.933Z,91.10
2023-01-08T07:46:27.843Z,91.00
2023-01-08T07:48:57.148Z,91.30
2023-01-08T07:51:25.042Z,91.00
2023-01-08T07:53:53.211Z,90.90
2023-01-08T07:56:22.136Z,90.90
2023-01-08T07:58:52.040Z,90.90
2023-01-08T08:01:20.302Z,90.80
2023-01-08T08:03:49.517Z,90.80
2023-01-08T08:06:17.433Z,90.80
2023-01-08T08:08:45.380Z,90.80
2023-01-08T08:11:13.347Z,90.80
2023-01-08T08:13:44.802Z,90.80
2023-01-08T08:16:14.190Z,90.80
2023-01-08T08:18:42.252Z,90.80
2023-01-08T08:21:10.097Z,90.60
2023-01-08T08:23:38.059Z,90.70
2023-01-08T08:26:07.740Z,90.70
2023-01-08T08:28:35.774Z,90.70
2023-01-08T08:31:03.815Z,90.70
2023-01-08T08:33:33.448Z,90.70
2023-01-08T08:36:01.608Z,90.70
2023-01-08T08:38:29.495Z,90.70
2023-01-08T08:40:57.357Z,90.60
2023-01-08T08:43:25.212Z,90.60
2023-01-08T08:45:53.276Z,91.00
2023-01-08T08:48:23.183Z,90.70
2023-01-08T08:50:53.236Z,90.60
2023-01-08T08:53:22.370Z,90.40
2023-01-08T08:55:52.751Z,90.60
2023-01-08T08:58:21.258Z,90.60
2023-01-08T09:00:50.610Z,90.60
2023-01-08T09:03:19.595Z,90.60
2023-01-08T09:05:49.661Z,90.60
2023-01-08T09:08:18.855Z,90.70
2023-01-08T09:10:46.841Z,90.60
2023-01-08T09:13:14.705Z,90.50
2023-01-08T09:15:42.547Z,90.60
2023-01-08T09:18:10.464Z,90.60
2023-01-08T09:20:38.501Z,90.70
2023-01-08T09:23:06.983Z,90.70
2023-01-08T09:25:36.669Z,90.80
2023-01-08T09:28:07.000Z,90.90
2023-01-08T09:30:35.529Z,90.90
2023-01-08T09:33:04.807Z,90.90
2023-01-08T09:35:33.753Z,91.00
2023-01-08T09:38:01.839Z,91.00
2023-01-08T09:40:34.520Z,91.00
2023-01-08T09:43:06.539Z,91.00
2023-01-08T09:45:38.262Z,91.00
2023-01-08T09:48:12.174Z,91.00
2023-01-08T09:50:40.263Z,91.30
2023-01-08T09:53:13.900Z,91.00
2023-01-08T09:55:42.598Z,91.00
2023-01-08T09:58:23.544Z,91.10
2023-01-08T10:00:52.876Z,91.00
2023-01-08T10:03:21.134Z,90.90
2023-01-08T10:05:49.554Z,90.90
2023-01-08T10:08:17.465Z,91.00
2023-01-08T10:10:46.747Z,91.30
2023-01-08T10:13:17.105Z,91.10
2023-01-08T10:15:45.005Z,91.10
2023-01-08T10:18:15.016Z,91.10
2023-01-08T10:20:43.059Z,90.60
2023-01-08T10:23:14.048Z,91.10
2023-01-08T10:25:54.237Z,91.10
2023-01-08T10:28:26.154Z,91.20
2023-01-08T10:30:55.505Z,91.30
2023-01-08T10:33:27.594Z,91.20
2023-01-08T10:35:59.428Z,91.30
2023-01-08T10:38:33.367Z,91.20
2023-01-08T10:41:04.400Z,91.20
2023-01-08T10:43:35.815Z,91.30
2023-01-08T10:46:05.925Z,91.30
2023-01-08T10:48:36.602Z,91.20
2023-01-08T10:51:17.174Z,91.20
2023-01-08T10:53:45.307Z,91.10
2023-01-08T10:56:22.920Z,91.10
2023-01-08T10:58:54.507Z,91.10
2023-01-08T11:01:25.556Z,91.10
2023-01-08T11:03:57.853Z,91.10
2023-01-08T11:06:28.445Z,91.00
2023-01-08T11:08:58.661Z,91.00
2023-01-08T11:11:34.274Z,91.00
2023-01-08T11:14:06.141Z,90.90
2023-01-08T11:16:38.353Z,90.90
2023-01-08T11:19:16.507Z,90.80
2023-01-08T11:21:55.993Z,90.80
2023-01-08T11:24:27.047Z,90.70
2023-01-08T11:26:59.145Z,90.60
2023-01-08T11:29:38.717Z,90.60
2023-01-08T11:32:31.752Z,90.60
2023-01-08T11:35:04.305Z,90.50
2023-01-08T11:37:36.888Z,90.60
2023-01-08T11:40:12.580Z,90.70
2023-01-08T11:43:02.246Z,90.70
2023-01-08T11:45:39.003Z,90.60
2023-01-08T11:48:25.063Z,90.60
2023-01-08T11:51:08.684Z,90.90
2023-01-08T11:53:42.692Z,90.60
2023-01-08T11:56:22.678Z,90.50
2023-01-08T11:59:04.252Z,90.30
2023-01-08T12:01:48.197Z,90.30
2023-01-08T12:04:34.200Z,90.30
2023-01-08T12:07:10.522Z,90.20
2023-01-08T12:09:42.113Z,90.30
2023-01-08T12:12:22.685Z,90.00
2023-01-08T12:15:04.756Z,90.00
2023-01-08T12:18:03.206Z,89.40
2023-01-08T12:20:37.105Z,89.50
2023-01-08T12:23:22.811Z,89.20
2023-01-08T12:26:10.602Z,89.30
2023-01-08T12:28:53.036Z,89.10
2023-01-08T12:31:37.385Z,88.90
2023-01-08T12:34:12.097Z,89.10
2023-01-08T12:36:45.093Z,89.00
2023-01-08T12:39:19.457Z,88.90
2023-01-08T12:41:50.591Z,88.90
2023-01-08T12:44:25.681Z,89.00
2023-01-08T12:46:55.029Z,89.30
2023-01-08T12:49:33.841Z,89.20
2023-01-08T12:52:08.382Z,88.60
2023-01-08T12:54:45.079Z,88.60
2023-01-08T12:57:17.589Z,88.60
2023-01-08T12:59:49.985Z,88.50
2023-01-08T13:02:32.342Z,88.40
2023-01-08T13:05:12.777Z,88.20
2023-01-08T13:07:45.754Z,87.60
2023-01-08T13:10:26.082Z,87.60
2023-01-08T13:12:55.400Z,86.90
2023-01-08T13:15:26.757Z,86.60
2023-01-08T13:17:56.528Z,86.40
2023-01-08T13:20:28.753Z,86.40
2023-01-08T13:22:59.958Z,86.30
2023-01-08T13:25:31.736Z,86.20
2023-01-08T13:27:59.784Z,85.90
2023-01-08T13:30:38.626Z,85.80
2023-01-08T13:33:25.943Z,85.30
2023-01-08T13:36:15.516Z,84.80
2023-01-08T13:38:44.030Z,84.70
2023-01-08T13:41:28.662Z,84.70
2023-01-08T13:44:01.205Z,84.50
2023-01-08T13:46:29.978Z,84.80
2023-01-08T13:49:04.396Z,85.00
2023-01-08T13:51:41.787Z,84.70
2023-01-08T13:54:24.242Z,84.30
2023-01-08T13:56:56.820Z,84.10
2023-01-08T13:59:37.041Z,83.90
2023-01-08T14:02:06.031Z,84.10
2023-01-08T14:04:33.949Z,83.80
2023-01-08T14:07:14.769Z,83.50
2023-01-08T14:09:42.693Z,83.50
2023-01-08T14:12:15.146Z,83.90
2023-01-08T14:14:51.340Z,83.70
2023-01-08T14:17:22.754Z,83.80
2023-01-08T14:19:50.984Z,84.00
2023-01-08T14:22:23.613Z,83.80
2023-01-08T14:24:56.536Z,83.50
2023-01-08T14:27:27.596Z,83.70
2023-01-08T14:29:56.501Z,83.80
2023-01-08T14:32:26.448Z,84.10
2023-01-08T14:34:55.261Z,84.00
2023-01-08T14:37:25.652Z,83.80
2023-01-08T14:39:55.093Z,83.80
2023-01-08T14:42:47.091Z,84.00
2023-01-08T14:45:21.464Z,83.40
2023-01-08T14:47:51.702Z,83.70
2023-01-08T14:50:26.595Z,83.50
2023-01-08T14:52:58.959Z,83.40
2023-01-08T14:55:28.864Z,83.00
2023-01-08T14:57:58.271Z,83.00
2023-01-08T15:00:28.456Z,83.40
2023-01-08T15:02:57.001Z,83.30
2023-01-08T15:05:28.969Z,83.40
2023-01-08T15:08:02.595Z,82.90
2023-01-08T15:10:41.826Z,82.70
2023-01-08T15:13:24.045Z,82.50
2023-01-08T15:15:58.157Z,83.40
2023-01-08T15:18:26.440Z,82.70
2023-01-08T15:20:55.523Z,82.90
2023-01-08T15:23:36.179Z,82.90
2023-01-08T15:26:04.418Z,82.70
2023-01-08T15:28:32.413Z,83.60
2023-01-08T15:31:00.457Z,82.90
2023-01-08T15:33:28.945Z,82.70
2023-01-08T15:35:57.541Z,82.70
2023-01-08T15:38:25.334Z,82.70
2023-01-08T15:40:55.813Z,82.60
2023-01-08T15:43:23.739Z,82.80
2023-01-08T15:45:54.428Z,82.80
2023-01-08T15:48:25.343Z,82.90
2023-01-08T15:50:53.366Z,84.60
2023-01-08T15:53:23.232Z,83.20
2023-01-08T15:55:52.739Z,82.90
2023-01-08T15:58:22.849Z,83.00
2023-01-08T16:00:51.027Z,83.10
2023-01-08T16:03:18.864Z,82.90
2023-01-08T16:05:46.836Z,83.20
2023-01-08T16:08:14.715Z,83.50
2023-01-08T16:10:42.524Z,83.40
2023-01-08T16:13:12.129Z,83.40
2023-01-08T16:15:41.696Z,83.40
2023-01-08T16:18:09.900Z,83.30
2023-01-08T16:20:38.276Z,83.40
2023-01-08T16:23:06.198Z,83.50
2023-01-08T16:25:34.071Z,83.60
2023-01-08T16:28:03.196Z,83.40
2023-01-08T16:30:31.039Z,83.60
2023-01-08T16:33:00.334Z,83.80
2023-01-08T16:35:28.232Z,83.60
2023-01-08T16:37:56.612Z,83.80
2023-01-08T16:40:24.548Z,83.90
2023-01-08T16:42:52.622Z,83.90
2023-01-08T16:45:22.904Z,84.00
2023-01-08T16:47:52.182Z,83.90
2023-01-08T16:50:23.809Z,84.60
2023-01-08T16:52:54.722Z,84.20
2023-01-08T16:55:23.319Z,84.30
2023-01-08T16:57:53.952Z,84.50
2023-01-08T17:00:23.707Z,84.50
2023-01-08T17:02:52.355Z,84.70
2023-01-08T17:05:23.960Z,84.80
2023-01-08T17:07:53.141Z,84.80
2023-01-08T17:10:23.265Z,85.00
2023-01-08T17:12:51.645Z,85.00
2023-01-08T17:15:19.841Z,85.10
2023-01-08T17:17:48.133Z,85.00
2023-01-08T17:20:16.582Z,84.90
2023-01-08T17:22:45.823Z,85.20
2023-01-08T17:25:14.172Z,85.20
2023-01-08T17:27:42.599Z,85.30
2023-01-08T17:30:11.631Z,85.30
2023-01-08T17:32:39.877Z,85.30
2023-01-08T17:35:08.479Z,85.50
2023-01-08T17:37:36.747Z,85.40
2023-01-08T17:40:07.247Z,85.50
2023-01-08T17:42:35.105Z,85.50
2023-01-08T17:45:05.654Z,85.50
2023-01-08T17:47:35.103Z,85.60
2023-01-08T17:50:05.609Z,85.50
2023-01-08T17:52:33.625Z,85.70
2023-01-08T17:55:01.486Z,85.60
2023-01-08T17:57:31.581Z,85.60
2023-01-08T17:59:59.686Z,85.70
2023-01-08T18:02:27.734Z,85.60
2023-01-08T18:04:55.647Z,85.70
2023-01-08T18:07:24.394Z,85.50
2023-01-08T18:09:54.327Z,85.40
2023-01-08T18:12:23.152Z,85.40
2023-01-08T18:14:53.387Z,85.20
2023-01-08T18:17:22.132Z,85.30
2023-01-08T18:19:52.201Z,85.30
2023-01-08T18:22:25.635Z,85.30
2023-01-08T18:24:56.080Z,85.50
2023-01-08T18:27:24.384Z,85.60
2023-01-08T18:29:55.117Z,85.50
2023-01-08T18:32:25.966Z,84.50
2023-01-08T18:34:53.964Z,85.70
2023-01-08T18:37:24.911Z,85.60
2023-01-08T18:39:52.796Z,85.50
2023-01-08T18:42:26.668Z,86.00
2023-01-08T18:44:56.728Z,85.90
2023-01-08T18:47:26.064Z,85.80
2023-01-08T18:49:54.940Z,85.90
2023-01-08T18:52:23.731Z,85.60
2023-01-08T18:54:53.177Z,85.80
2023-01-08T18:57:21.711Z,85.80
2023-01-08T18:59:52.211Z,85.80
2023-01-08T19:02:27.690Z,85.80
2023-01-08T19:04:55.573Z,85.20
2023-01-08T19:07:23.455Z,85.80
2023-01-08T19:09:54.473Z,85.80
2023-01-08T19:12:27.031Z,85.70
2023-01-08T19:14:55.726Z,85.70
2023-01-08T19:17:24.998Z,85.80
2023-01-08T19:19:53.125Z,85.80
2023-01-08T19:22:22.457Z,85.80
2023-01-08T19:24:50.504Z,85.90
2023-01-08T19:27:18.370Z,86.00
2023-01-08T19:29:46.773Z,86.10
2023-01-08T19:32:14.900Z,86.20
2023-01-08T19:34:44.363Z,86.30
2023-01-08T19:37:13.802Z,86.40
2023-01-08T19:39:41.812Z,86.50
2023-01-08T19:42:29.172Z,86.60
2023-01-08T19:44:57.028Z,86.70
2023-01-08T19:47:24.884Z,86.60
2023-01-08T19:49:54.204Z,86.80
2023-01-08T19:52:22.797Z,86.80
2023-01-08T19:54:51.092Z,86.50
2023-01-08T19:57:19.020Z,86.70
2023-01-08T19:59:46.877Z,86.90
2023-01-08T20:02:14.732Z,86.80
2023-01-08T20:04:43.786Z,87.60
2023-01-08T20:07:13.716Z,86.90
2023-01-08T20:09:41.986Z,86.90
2023-01-08T20:12:10.193Z,86.90
2023-01-08T20:14:38.399Z,86.80
2023-01-08T20:17:06.627Z,86.70
2023-01-08T20:19:34.760Z,86.60
2023-01-08T20:22:02.875Z,86.50
2023-01-08T20:24:32.235Z,86.70
2023-01-08T20:27:00.168Z,86.70
2023-01-08T20:29:28.854Z,86.80
2023-01-08T20:31:59.326Z,86.90
2023-01-08T20:34:28.073Z,87.00
2023-01-08T20:36:57.186Z,87.10
2023-01-08T20:39:25.081Z,87.10
2023-01-08T20:42:03.737Z,87.20
2023-01-08T20:44:32.571Z,87.10
2023-01-08T20:47:02.936Z,87.20
2023-01-08T20:49:30.836Z,87.30
2023-01-08T20:52:00.360Z,87.30
2023-01-08T20:54:30.205Z,87.40
2023-01-08T20:57:00.617Z,87.40
2023-01-08T20:59:29.162Z,87.50
2023-01-08T21:01:57.285Z,87.30
2023-01-08T21:04:25.440Z,87.20
2023-01-08T21:06:53.304Z,87.20
2023-01-08T21:09:23.088Z,87.10
2023-01-08T21:11:52.015Z,87.00
2023-01-08T21:14:23.133Z,86.70
2023-01-08T21:16:55.183Z,87.10
2023-01-08T21:19:23.479Z,87.00
2023-01-08T21:21:52.126Z,87.10
2023-01-08T21:24:20.972Z,86.80
2023-01-08T21:26:49.456Z,87.20
2023-01-08T21:29:20.382Z,87.20
2023-01-08T21:31:52.785Z,87.40
2023-01-08T21:34:22.195Z,88.10
2023-01-08T21:36:51.144Z,87.50
2023-01-08T21:39:19.107Z,87.60
2023-01-08T21:42:04.356Z,87.70
2023-01-08T21:44:51.382Z,88.50
2023-01-08T21:47:22.270Z,87.90
2023-01-08T21:49:51.262Z,88.00
2023-01-08T21:52:36.615Z,88.20
2023-01-08T21:55:04.774Z,88.40
2023-01-08T21:57:39.527Z,88.50
2023-01-08T22:00:08.929Z,88.80
2023-01-08T22:02:38.418Z,88.90
2023-01-08T22:05:07.347Z,88.90
2023-01-08T22:07:35.589Z,89.10
2023-01-08T22:10:03.736Z,89.30
2023-01-08T22:12:31.750Z,89.30
2023-01-08T22:14:59.660Z,89.50
2023-01-08T22:17:30.359Z,89.70
2023-01-08T22:20:01.194Z,89.80
2023-01-08T22:22:29.076Z,90.00
2023-01-08T22:24:56.887Z,90.00
2023-01-08T22:27:24.862Z,90.00
2023-01-08T22:29:53.546Z,90.20
2023-01-08T22:32:22.091Z,90.20
2023-01-08T22:34:50.654Z,90.30
2023-01-08T22:37:22.277Z,90.40
2023-01-08T22:39:51.118Z,90.50
2023-01-08T22:42:19.232Z,90.60
2023-01-08T22:44:48.156Z,90.70
2023-01-08T22:47:16.005Z,90.80
2023-01-08T22:49:43.884Z,91.20
2023-01-08T22:52:11.881Z,90.70
2023-01-08T22:54:41.222Z,90.90
2023-01-08T22:57:09.447Z,91.00
2023-01-08T22:59:37.584Z,91.10
2023-01-08T23:02:05.440Z,91.20
2023-01-08T23:04:33.284Z,91.20
2023-01-08T23:07:01.124Z,91.20
2023-01-08T23:09:28.901Z,91.20
2023-01-08T23:11:58.060Z,91.30
2023-01-08T23:14:25.969Z,91.30
2023-01-08T23:16:53.841Z,91.30
2023-01-08T23:19:23.068Z,91.30
2023-01-08T23:21:51.603Z,91.40
2023-01-08T23:24:20.975Z,91.20
2023-01-08T23:26:49.650Z,91.20
2023-01-08T23:29:19.009Z,91.30
2023-01-08T23:31:48.063Z,91.20
2023-01-08T23:34:16.298Z,91.20
2023-01-08T23:36:44.348Z,91.00
2023-01-08T23:39:12.194Z,91.10
2023-01-08T23:41:40.615Z,91.10
2023-01-08T23:44:11.930Z,91.00
2023-01-08T23:46:41.097Z,91.00
2023-01-08T23:49:09.182Z,90.90
2023-01-08T23:51:37.308Z,90.80
2023-01-08T23:54:05.327Z,90.80
2023-01-08T23:56:33.166Z,90.80
2023-01-08T23:59:01.283Z,90.90
